createdAt,value
2018-08-18T00:00:20.327Z,17.11
2018-08-18T00:02:49.319Z,17.09
2018-08-18T00:05:18.550Z,17.06
2018-08-18T00:07:47.487Z,16.92
2018-08-18T00:10:19.727Z,17.01
2018-08-18T00:12:48.589Z,16.98
2018-08-18T00:15:17.601Z,16.97
2018-08-18T00:17:46.544Z,16.85
2018-08-18T00:20:17.401Z,17.00
2018-08-18T00:22:46.380Z,17.14
2018-08-18T00:25:15.361Z,16.90
2018-08-18T00:27:44.249Z,16.85
2018-08-18T00:30:18.457Z,16.66
2018-08-18T00:32:47.357Z,16.61
2018-08-18T00:35:16.345Z,16.62
2018-08-18T00:37:45.194Z,16.84
2018-08-18T00:40:14.149Z,16.82
2018-08-18T00:42:44.157Z,16.71
2018-08-18T00:45:13.640Z,16.75
2018-08-18T00:47:42.515Z,16.70
2018-08-18T00:50:12.795Z,16.66
2018-08-18T00:52:41.927Z,16.69
2018-08-18T00:55:10.804Z,16.75
2018-08-18T00:57:39.707Z,16.56
2018-08-18T01:00:08.608Z,16.54
2018-08-18T01:02:37.469Z,16.45
2018-08-18T01:05:06.354Z,16.37
2018-08-18T01:07:35.275Z,16.55
2018-08-18T01:10:04.275Z,16.45
2018-08-18T01:12:34.008Z,16.38
2018-08-18T01:15:03.655Z,16.36
2018-08-18T01:17:32.879Z,16.07
2018-08-18T01:20:03.271Z,16.09
2018-08-18T01:22:32.193Z,16.23
2018-08-18T01:25:01.097Z,16.25
2018-08-18T01:27:30.355Z,16.32
2018-08-18T01:30:04.036Z,16.32
2018-08-18T01:32:34.047Z,16.42
2018-08-18T01:35:03.219Z,16.17
2018-08-18T01:37:32.506Z,16.17
2018-08-18T01:40:01.739Z,16.26
2018-08-18T01:42:32.377Z,16.22
2018-08-18T01:45:01.400Z,16.34
2018-08-18T01:47:30.473Z,16.29
2018-08-18T01:50:03.726Z,16.35
2018-08-18T01:52:33.274Z,16.23
2018-08-18T01:55:02.732Z,16.30
2018-08-18T01:57:32.903Z,16.34
2018-08-18T02:00:05.926Z,16.34
2018-08-18T02:02:34.841Z,16.16
2018-08-18T02:05:13.451Z,16.26
2018-08-18T02:07:42.331Z,16.25
2018-08-18T02:10:11.237Z,16.10
2018-08-18T02:12:41.170Z,15.93
2018-08-18T02:15:10.039Z,15.88
2018-08-18T02:17:38.952Z,15.93
2018-08-18T02:20:09.345Z,15.93
2018-08-18T02:22:38.214Z,16.00
2018-08-18T02:25:07.233Z,15.97
2018-08-18T02:27:36.947Z,16.01
2018-08-18T02:30:16.088Z,16.06
2018-08-18T02:32:44.970Z,15.81
2018-08-18T02:35:13.865Z,15.83
2018-08-18T02:37:42.728Z,15.91
2018-08-18T02:40:13.955Z,16.02
2018-08-18T02:42:42.868Z,15.83
2018-08-18T02:45:12.267Z,15.70
2018-08-18T02:47:41.305Z,15.89
2018-08-18T02:50:11.282Z,15.86
2018-08-18T02:52:40.199Z,15.61
2018-08-18T02:55:10.640Z,15.60
2018-08-18T02:57:41.570Z,15.75
2018-08-18T03:00:26.974Z,15.72
2018-08-18T03:02:55.922Z,15.68
2018-08-18T03:05:24.798Z,15.57
2018-08-18T03:07:53.750Z,15.54
2018-08-18T03:10:22.674Z,15.46
2018-08-18T03:12:53.061Z,15.63
2018-08-18T03:16:00.516Z,15.60
2018-08-18T03:18:51.104Z,15.59
2018-08-18T03:21:25.962Z,15.54
2018-08-18T03:24:06.343Z,15.38
2018-08-18T03:26:40.314Z,15.44
2018-08-18T03:29:10.731Z,15.62
2018-08-18T03:31:40.307Z,15.54
2018-08-18T03:34:09.470Z,15.33
2018-08-18T03:36:40.280Z,15.32
2018-08-18T03:39:12.190Z,15.39
2018-08-18T03:41:41.092Z,15.45
2018-08-18T03:44:10.017Z,15.32
2018-08-18T03:46:38.923Z,15.45
2018-08-18T03:49:07.831Z,15.49
2018-08-18T03:51:42.065Z,15.30
2018-08-18T03:54:11.179Z,15.14
2018-08-18T03:56:40.367Z,15.43
2018-08-18T03:59:09.269Z,15.33
2018-08-18T04:01:43.649Z,15.30
2018-08-18T04:04:13.447Z,15.29
2018-08-18T04:06:43.381Z,15.26
2018-08-18T04:09:18.886Z,15.42
2018-08-18T04:11:47.825Z,15.48
2018-08-18T04:14:21.525Z,15.33
2018-08-18T04:16:51.471Z,15.31
2018-08-18T04:19:21.395Z,15.33
2018-08-18T04:21:52.115Z,15.22
2018-08-18T04:24:20.996Z,15.09
2018-08-18T04:26:51.202Z,15.16
2018-08-18T04:29:21.523Z,15.17
2018-08-18T04:31:50.475Z,15.15
2018-08-18T04:34:19.353Z,15.07
2018-08-18T04:36:48.257Z,15.07
2018-08-18T04:39:17.197Z,15.13
2018-08-18T04:41:46.068Z,15.21
2018-08-18T04:44:14.942Z,15.28
2018-08-18T04:46:43.847Z,15.22
2018-08-18T04:49:12.772Z,15.25
2018-08-18T04:51:41.665Z,15.19
2018-08-18T04:54:10.576Z,15.26
2018-08-18T04:56:39.477Z,15.32
2018-08-18T04:59:08.386Z,15.06
2018-08-18T05:01:37.297Z,15.15
2018-08-18T05:04:10.403Z,15.33
2018-08-18T05:06:40.541Z,15.27
2018-08-18T05:09:10.666Z,15.44
2018-08-18T05:11:39.765Z,15.35
2018-08-18T05:14:08.544Z,15.43
2018-08-18T05:16:37.465Z,15.41
2018-08-18T05:19:06.473Z,15.52
2018-08-18T05:21:35.370Z,15.57
2018-08-18T05:24:20.278Z,15.54
2018-08-18T05:26:49.579Z,15.49
2018-08-18T05:29:18.471Z,15.72
2018-08-18T05:31:47.400Z,15.56
2018-08-18T05:34:16.350Z,15.74
2018-08-18T05:36:45.550Z,15.60
2018-08-18T05:39:14.484Z,15.67
2018-08-18T05:41:43.432Z,15.70
2018-08-18T05:44:12.286Z,15.76
2018-08-18T05:46:41.173Z,15.71
2018-08-18T05:49:14.084Z,15.84
2018-08-18T05:51:45.147Z,16.02
2018-08-18T05:54:16.479Z,16.09
2018-08-18T05:56:46.340Z,16.15
2018-08-18T05:59:15.197Z,16.16
2018-08-18T06:01:44.240Z,16.07
2018-08-18T06:04:14.287Z,16.04
2018-08-18T06:06:43.960Z,16.11
2018-08-18T06:09:14.102Z,16.00
2018-08-18T06:11:43.146Z,16.17
2018-08-18T06:14:12.773Z,16.30
2018-08-18T06:16:42.229Z,16.35
2018-08-18T06:19:11.170Z,16.36
2018-08-18T06:21:40.245Z,16.41
2018-08-18T06:24:10.390Z,16.47
2018-08-18T06:26:40.602Z,16.50
2018-08-18T06:29:09.870Z,16.53
2018-08-18T06:31:55.297Z,16.59
2018-08-18T06:34:24.285Z,16.76
2018-08-18T06:36:53.152Z,16.87
2018-08-18T06:39:22.139Z,16.89
2018-08-18T06:41:51.076Z,16.90
2018-08-18T06:44:24.373Z,16.84
2018-08-18T06:46:53.266Z,17.07
2018-08-18T06:49:22.210Z,17.14
2018-08-18T06:51:51.125Z,17.12
2018-08-18T06:54:20.032Z,17.17
2018-08-18T06:56:48.936Z,17.23
2018-08-18T06:59:17.967Z,17.26
2018-08-18T07:01:46.957Z,17.45
2018-08-18T07:04:20.052Z,17.32
2018-08-18T07:06:48.948Z,17.48
2018-08-18T07:09:17.825Z,17.58
2018-08-18T07:11:46.745Z,17.63
2018-08-18T07:14:15.667Z,17.64
2018-08-18T07:16:44.540Z,17.69
2018-08-18T07:19:13.513Z,17.69
2018-08-18T07:21:42.360Z,17.72
2018-08-18T07:24:11.293Z,17.79
2018-08-18T07:26:40.200Z,17.76
2018-08-18T07:29:09.375Z,17.87
2018-08-18T07:31:37.977Z,17.98
2018-08-18T07:34:06.964Z,18.02
2018-08-18T07:36:35.951Z,18.13
2018-08-18T07:39:06.308Z,18.10
2018-08-18T07:41:35.181Z,18.14
2018-08-18T07:44:04.096Z,18.19
2018-08-18T07:46:33.193Z,18.32
2018-08-18T07:49:02.473Z,18.31
2018-08-18T07:51:31.305Z,18.40
2018-08-18T07:54:00.163Z,18.48
2018-08-18T07:56:29.053Z,18.50
2018-08-18T07:58:57.937Z,18.52
2018-08-18T08:01:26.834Z,18.57
2018-08-18T08:03:55.733Z,18.66
2018-08-18T08:06:24.625Z,18.72
2018-08-18T08:08:53.530Z,18.75
2018-08-18T08:11:23.311Z,18.80
2018-08-18T08:13:52.247Z,18.81
2018-08-18T08:16:21.152Z,18.88
2018-08-18T08:18:50.073Z,18.93
2018-08-18T08:21:18.957Z,19.01
2018-08-18T08:23:47.899Z,19.03
2018-08-18T08:26:16.804Z,19.01
2018-08-18T08:28:45.707Z,19.04
2018-08-18T08:31:14.603Z,19.14
2018-08-18T08:33:43.497Z,19.15
2018-08-18T08:36:16.032Z,19.16
2018-08-18T08:38:56.150Z,19.18
2018-08-18T08:41:27.367Z,19.38
2018-08-18T08:43:56.261Z,19.42
2018-08-18T08:46:25.181Z,19.50
2018-08-18T08:49:00.231Z,19.49
2018-08-18T08:51:29.179Z,19.49
2018-08-18T08:53:59.263Z,19.53
2018-08-18T08:56:33.541Z,19.55
2018-08-18T08:59:02.499Z,19.65
2018-08-18T09:01:31.402Z,19.77
2018-08-18T09:04:00.306Z,19.81
2018-08-18T09:06:29.229Z,19.78
2018-08-18T09:08:59.867Z,19.84
2018-08-18T09:11:29.733Z,19.89
2018-08-18T09:14:02.127Z,19.92
2018-08-18T09:16:32.057Z,19.99
2018-08-18T09:19:01.095Z,20.27
2018-08-18T09:21:37.873Z,20.20
2018-08-18T09:24:07.287Z,20.21
2018-08-18T09:26:41.591Z,20.22
2018-08-18T09:29:10.814Z,20.30
2018-08-18T09:31:39.918Z,20.37
2018-08-18T09:34:08.864Z,20.40
2018-08-18T09:36:37.788Z,20.46
2018-08-18T09:39:10.174Z,20.48
2018-08-18T09:41:39.378Z,20.53
2018-08-18T09:44:14.828Z,20.60
2018-08-18T09:46:44.424Z,20.71
2018-08-18T09:49:13.342Z,20.76
2018-08-18T09:51:42.274Z,20.67
2018-08-18T09:54:11.151Z,20.70
2018-08-18T09:56:40.088Z,20.74
2018-08-18T09:59:09.022Z,20.85
2018-08-18T10:01:37.886Z,20.87
2018-08-18T10:04:07.069Z,21.05
2018-08-18T10:06:35.991Z,21.05
2018-08-18T10:09:07.190Z,21.12
2018-08-18T10:11:36.345Z,21.16
2018-08-18T10:14:05.684Z,21.27
2018-08-18T10:16:34.601Z,21.22
2018-08-18T10:19:03.471Z,21.10
2018-08-18T10:21:32.367Z,21.06
2018-08-18T10:24:01.325Z,21.06
2018-08-18T10:26:30.204Z,21.27
2018-08-18T10:29:12.383Z,21.27
2018-08-18T10:31:56.839Z,21.26
2018-08-18T10:34:33.737Z,21.11
2018-08-18T10:37:07.336Z,21.11
2018-08-18T10:39:37.299Z,21.23
2018-08-18T10:42:15.750Z,21.35
2018-08-18T10:45:02.844Z,21.26
2018-08-18T10:47:31.929Z,21.30
2018-08-18T10:50:11.984Z,21.29
2018-08-18T10:53:01.204Z,21.25
2018-08-18T10:55:31.477Z,21.29
2018-08-18T10:58:05.159Z,21.36
2018-08-18T11:00:34.525Z,21.37
2018-08-18T11:03:04.805Z,21.37
2018-08-18T11:05:33.829Z,21.43
2018-08-18T11:08:09.490Z,21.48
2018-08-18T11:10:40.565Z,21.52
2018-08-18T11:13:09.762Z,21.51
2018-08-18T11:15:39.016Z,21.46
2018-08-18T11:18:08.004Z,21.60
2018-08-18T11:20:36.885Z,21.91
2018-08-18T11:23:07.876Z,21.81
2018-08-18T11:25:42.766Z,21.93
2018-08-18T11:28:12.452Z,21.94
2018-08-18T11:30:41.407Z,22.02
2018-08-18T11:33:10.354Z,22.16
2018-08-18T11:35:39.282Z,22.11
2018-08-18T11:38:11.763Z,22.25
2018-08-18T11:40:40.662Z,22.26
2018-08-18T11:43:11.321Z,22.17
2018-08-18T11:45:41.058Z,22.38
2018-08-18T11:48:15.915Z,22.58
2018-08-18T11:50:45.269Z,22.64
2018-08-18T11:53:14.302Z,22.67
2018-08-18T11:55:43.313Z,22.78
2018-08-18T11:58:14.300Z,22.74
2018-08-18T12:00:48.376Z,22.71
2018-08-18T12:03:19.358Z,22.91
2018-08-18T12:05:50.554Z,23.11
2018-08-18T12:08:20.358Z,23.20
2018-08-18T12:10:50.385Z,23.21
2018-08-18T12:13:21.639Z,23.08
2018-08-18T12:16:01.850Z,23.16
2018-08-18T12:18:31.873Z,23.30
2018-08-18T12:21:01.953Z,23.33
2018-08-18T12:23:31.403Z,23.29
2018-08-18T12:26:05.493Z,23.60
2018-08-18T12:28:39.780Z,23.69
2018-08-18T12:31:10.439Z,23.51
2018-08-18T12:33:39.356Z,23.69
2018-08-18T12:36:08.297Z,23.53
2018-08-18T12:38:37.525Z,23.68
2018-08-18T12:41:06.535Z,23.50
2018-08-18T12:43:39.018Z,23.55
2018-08-18T12:46:10.441Z,23.49
2018-08-18T12:48:41.551Z,23.90
2018-08-18T12:51:11.599Z,23.88
2018-08-18T12:53:45.815Z,23.86
2018-08-18T12:56:17.452Z,23.72
2018-08-18T12:58:46.390Z,23.85
2018-08-18T13:01:42.032Z,23.96
2018-08-18T13:04:16.263Z,23.99
2018-08-18T13:06:46.501Z,24.06
2018-08-18T13:09:18.518Z,24.12
2018-08-18T13:11:48.851Z,24.31
2018-08-18T13:14:20.080Z,24.32
2018-08-18T13:16:49.136Z,24.21
2018-08-18T13:19:19.831Z,24.30
2018-08-18T13:21:48.818Z,24.23
2018-08-18T13:24:18.083Z,24.12
2018-08-18T13:26:47.023Z,24.08
2018-08-18T13:29:15.942Z,24.27
2018-08-18T13:31:45.290Z,24.60
2018-08-18T13:34:15.416Z,24.68
2018-08-18T13:36:45.366Z,24.52
2018-08-18T13:39:15.494Z,24.56
2018-08-18T13:41:45.400Z,24.40
2018-08-18T13:44:23.325Z,24.44
2018-08-18T13:46:52.349Z,24.39
2018-08-18T13:49:23.202Z,24.46
2018-08-18T13:51:52.192Z,24.35
2018-08-18T13:54:21.090Z,24.13
2018-08-18T13:56:49.973Z,24.23
2018-08-18T13:59:42.233Z,24.31
2018-08-18T14:02:11.374Z,24.16
2018-08-18T14:04:40.894Z,24.15
2018-08-18T14:07:10.222Z,24.16
2018-08-18T14:09:41.358Z,24.23
2018-08-18T14:12:13.861Z,24.26
2018-08-18T14:14:42.778Z,24.33
2018-08-18T14:17:11.820Z,24.28
2018-08-18T14:19:40.731Z,24.45
2018-08-18T14:22:10.393Z,24.31
2018-08-18T14:24:40.409Z,24.34
2018-08-18T14:27:13.439Z,24.42
2018-08-18T14:29:42.372Z,24.26
2018-08-18T14:32:16.745Z,24.22
2018-08-18T14:34:53.853Z,24.28
2018-08-18T14:37:22.740Z,24.26
2018-08-18T14:39:51.627Z,24.09
2018-08-18T14:42:20.525Z,24.23
2018-08-18T14:44:49.500Z,24.31
2018-08-18T14:47:18.344Z,24.48
2018-08-18T14:49:47.222Z,24.35
2018-08-18T14:52:16.106Z,24.48
2018-08-18T14:54:44.975Z,24.38
2018-08-18T14:57:13.897Z,24.47
2018-08-18T14:59:42.797Z,24.43
2018-08-18T15:02:11.723Z,24.34
2018-08-18T15:04:40.668Z,24.23
2018-08-18T15:07:09.575Z,24.13
2018-08-18T15:09:42.769Z,24.16
2018-08-18T15:12:11.688Z,24.27
2018-08-18T15:14:40.627Z,24.20
2018-08-18T15:17:09.536Z,24.30
2018-08-18T15:19:38.690Z,24.32
2018-08-18T15:22:08.941Z,24.14
2018-08-18T15:24:38.047Z,24.03
2018-08-18T15:27:07.004Z,24.09
2018-08-18T15:29:35.975Z,24.16
2018-08-18T15:32:05.003Z,24.25
2018-08-18T15:34:33.931Z,24.12
2018-08-18T15:37:03.026Z,24.02
2018-08-18T15:39:31.951Z,23.99
2018-08-18T15:42:01.552Z,24.14
2018-08-18T15:44:30.429Z,24.12
2018-08-18T15:46:59.543Z,23.97
2018-08-18T15:49:28.511Z,24.13
2018-08-18T15:51:57.415Z,24.18
2018-08-18T15:54:26.426Z,24.11
2018-08-18T15:56:55.217Z,24.13
2018-08-18T15:59:24.127Z,24.19
2018-08-18T16:01:53.160Z,24.30
2018-08-18T16:04:22.031Z,24.29
2018-08-18T16:06:50.937Z,24.08
2018-08-18T16:09:19.861Z,24.14
2018-08-18T16:11:48.782Z,24.21
2018-08-18T16:14:17.663Z,24.20
2018-08-18T16:16:57.076Z,24.16
2018-08-18T16:19:25.994Z,24.17
2018-08-18T16:21:54.870Z,24.06
2018-08-18T16:24:40.473Z,24.00
2018-08-18T16:27:09.395Z,24.00
2018-08-18T16:29:38.642Z,23.92
2018-08-18T16:32:27.469Z,23.90
2018-08-18T16:35:01.893Z,23.87
2018-08-18T16:37:31.117Z,23.75
2018-08-18T16:39:59.988Z,23.76
2018-08-18T16:42:29.231Z,23.86
2018-08-18T16:44:58.229Z,23.86
2018-08-18T16:47:27.352Z,23.72
2018-08-18T16:49:56.335Z,23.77
2018-08-18T16:52:25.215Z,23.75
2018-08-18T16:54:54.180Z,23.66
2018-08-18T16:57:24.020Z,23.56
2018-08-18T16:59:52.916Z,23.54
2018-08-18T17:02:35.215Z,23.53
2018-08-18T17:05:04.887Z,23.50
2018-08-18T17:07:33.782Z,23.45
2018-08-18T17:10:02.677Z,23.38
2018-08-18T17:12:31.900Z,23.37
2018-08-18T17:15:00.800Z,23.30
2018-08-18T17:17:29.712Z,23.30
2018-08-18T17:19:58.617Z,23.30
2018-08-18T17:22:27.512Z,23.26
2018-08-18T17:24:56.478Z,23.21
2018-08-18T17:27:28.068Z,23.19
2018-08-18T17:29:56.946Z,23.14
2018-08-18T17:32:26.663Z,23.10
2018-08-18T17:34:55.541Z,23.05
2018-08-18T17:37:24.461Z,23.05
2018-08-18T17:39:53.395Z,22.99
2018-08-18T17:42:22.778Z,22.95
2018-08-18T17:44:51.685Z,22.87
2018-08-18T17:47:21.601Z,22.90
2018-08-18T17:49:54.657Z,22.98
2018-08-18T17:52:23.802Z,22.90
2018-08-18T17:55:05.648Z,22.82
2018-08-18T17:57:36.176Z,22.82
2018-08-18T18:00:16.166Z,22.82
2018-08-18T18:02:51.086Z,22.85
2018-08-18T18:05:22.410Z,22.76
2018-08-18T18:07:53.479Z,22.71
2018-08-18T18:12:51.298Z,22.62
2018-08-18T18:15:41.100Z,22.59
2018-08-18T18:18:11.576Z,22.53
2018-08-18T18:20:42.663Z,22.50
2018-08-18T18:23:14.137Z,22.47
2018-08-18T18:25:44.165Z,22.42
2018-08-18T18:28:20.734Z,22.34
2018-08-18T18:30:52.272Z,22.35
2018-08-18T18:33:21.280Z,22.37
2018-08-18T18:35:50.847Z,22.39
2018-08-18T18:38:19.809Z,22.35
2018-08-18T18:40:48.679Z,22.24
2018-08-18T18:43:17.710Z,22.25
2018-08-18T18:45:46.768Z,22.26
2018-08-18T18:48:17.223Z,22.19
2018-08-18T18:50:47.881Z,22.16
2018-08-18T18:53:17.865Z,22.14
2018-08-18T18:55:51.822Z,22.12
2018-08-18T18:58:20.816Z,22.08
2018-08-18T19:01:01.349Z,21.98
2018-08-18T19:03:30.390Z,21.93
2018-08-18T19:05:59.307Z,21.88
2018-08-18T19:08:28.240Z,21.95
2018-08-18T19:10:57.229Z,21.85
2018-08-18T19:13:27.053Z,21.88
2018-08-18T19:15:55.963Z,21.86
2018-08-18T19:18:24.845Z,21.89
2018-08-18T19:20:53.740Z,21.92
2018-08-18T19:23:22.744Z,21.90
2018-08-18T19:25:52.082Z,21.90
2018-08-18T19:28:22.371Z,21.82
2018-08-18T19:30:51.297Z,21.77
2018-08-18T19:33:20.372Z,21.75
2018-08-18T19:35:51.750Z,21.74
2018-08-18T19:38:21.581Z,21.78
2018-08-18T19:40:52.064Z,21.77
2018-08-18T19:43:22.119Z,21.71
2018-08-18T19:45:51.341Z,21.69
2018-08-18T19:48:21.920Z,21.58
2018-08-18T19:50:56.855Z,21.55
2018-08-18T19:53:29.104Z,21.60
2018-08-18T19:55:59.245Z,21.61
2018-08-18T19:58:28.887Z,21.61
2018-08-18T20:00:57.887Z,21.58
2018-08-18T20:03:26.986Z,21.51
2018-08-18T20:05:55.979Z,21.48
2018-08-18T20:08:26.306Z,21.45
2018-08-18T20:11:01.499Z,21.42
2018-08-18T20:13:31.716Z,21.37
2018-08-18T20:16:03.058Z,21.23
2018-08-18T20:18:32.628Z,21.20
2018-08-18T20:21:01.446Z,21.09
2018-08-18T20:23:30.457Z,21.09
2018-08-18T20:26:01.737Z,20.97
2018-08-18T20:28:30.622Z,20.85
2018-08-18T20:30:59.537Z,20.90
2018-08-18T20:33:28.479Z,20.85
2018-08-18T20:35:57.371Z,20.67
2018-08-18T20:38:31.500Z,20.60
2018-08-18T20:41:00.500Z,20.64
2018-08-18T20:43:29.658Z,20.58
2018-08-18T20:45:58.580Z,20.62
2018-08-18T20:48:28.496Z,20.57
2018-08-18T20:50:57.486Z,20.53
2018-08-18T20:53:27.725Z,20.27
2018-08-18T20:56:00.019Z,20.32
2018-08-18T20:58:29.602Z,20.11
2018-08-18T21:00:58.505Z,20.17
2018-08-18T21:03:44.945Z,20.21
2018-08-18T21:06:14.708Z,20.24
2018-08-18T21:08:43.577Z,20.10
2018-08-18T21:11:12.445Z,19.90
2018-08-18T21:13:41.404Z,19.97
2018-08-18T21:16:11.408Z,20.04
2018-08-18T21:18:40.352Z,20.07
2018-08-18T21:21:39.912Z,20.09
2018-08-18T21:24:08.852Z,20.02
2018-08-18T21:26:37.881Z,19.84
2018-08-18T21:29:06.879Z,19.71
2018-08-18T21:31:37.056Z,19.76
2018-08-18T21:34:07.212Z,19.62
2018-08-18T21:36:36.579Z,19.65
2018-08-18T21:39:07.725Z,19.68
2018-08-18T21:41:37.127Z,19.62
2018-08-18T21:44:07.280Z,19.59
2018-08-18T21:46:36.126Z,19.71
2018-08-18T21:49:05.056Z,19.67
2018-08-18T21:51:33.988Z,19.49
2018-08-18T21:54:02.931Z,19.40
2018-08-18T21:56:42.861Z,19.47
2018-08-18T21:59:13.839Z,19.44
2018-08-18T22:01:42.849Z,19.32
2018-08-18T22:04:11.782Z,19.18
2018-08-18T22:06:40.717Z,19.17
2018-08-18T22:09:23.960Z,19.18
2018-08-18T22:11:52.958Z,19.26
2018-08-18T22:14:21.874Z,19.23
2018-08-18T22:16:56.215Z,19.15
2018-08-18T22:19:27.063Z,19.16
2018-08-18T22:21:55.985Z,18.95
2018-08-18T22:24:24.982Z,18.95
2018-08-18T22:26:54.477Z,18.90
2018-08-18T22:29:24.258Z,18.95
2018-08-18T22:31:53.187Z,18.96
2018-08-18T22:34:22.108Z,18.86
2018-08-18T22:36:54.673Z,18.93
2018-08-18T22:39:23.635Z,18.83
2018-08-18T22:41:52.529Z,18.75
2018-08-18T22:44:21.472Z,18.69
2018-08-18T22:46:50.360Z,18.79
2018-08-18T22:49:19.247Z,18.88
2018-08-18T22:51:48.248Z,18.71
2018-08-18T22:54:17.132Z,18.53
2018-08-18T22:56:50.179Z,18.63
2018-08-18T22:59:19.069Z,18.67
2018-08-18T23:01:48.075Z,18.72
2018-08-18T23:04:28.455Z,18.67
2018-08-18T23:06:57.950Z,18.74
2018-08-18T23:09:27.659Z,18.64
2018-08-18T23:12:00.413Z,18.60
2018-08-18T23:14:32.703Z,18.60
2018-08-18T23:17:01.932Z,18.54
2018-08-18T23:19:32.065Z,18.38
2018-08-18T23:22:01.430Z,18.48
2018-08-18T23:24:33.051Z,18.49
2018-08-18T23:27:02.566Z,18.52
2018-08-18T23:29:31.484Z,18.49
2018-08-18T23:32:04.111Z,18.50
2018-08-18T23:34:33.080Z,18.39
2018-08-18T23:37:01.946Z,18.33
2018-08-18T23:39:30.926Z,18.55
2018-08-18T23:42:11.097Z,18.42
2018-08-18T23:44:40.050Z,18.36
2018-08-18T23:47:08.935Z,18.21
2018-08-18T23:49:37.794Z,18.36
2018-08-18T23:52:06.995Z,18.39
2018-08-18T23:54:35.947Z,18.41
2018-08-18T23:57:04.925Z,18.26
2018-08-18T23:59:33.833Z,18.25
